This is the latest recevied weather packets stored in our database for station/object IZ1UKX-13. If no packets are shown the sender has not sent any weather packets the latest 10 day(s).
| Time | Temp. | Humidity | Pressure | Rain* | Wind** | Luminosity | Snow |
|---|---|---|---|---|---|---|---|
| 1787731150 | 31.11° C | 55% | 1021 hPa | 0 mm | - | 0 W/m² | - |
| 1787730850 | 30.56° C | 57% | 1021 hPa | 0 mm | - | 0 W/m² | - |
| 1787730549 | 29.44° C | 60% | 1021 hPa | 0 mm | - | 0 W/m² | - |
| 1787730250 | 29.44° C | 58% | 1021 hPa | 0 mm | - | 0 W/m² | - |
| 1787729949 | 29.44° C | 59% | 1021 hPa | 0 mm | - | 0 W/m² | - |
| 1787729650 | 30° C | 58% | 1021 hPa | 0 mm | - | 0 W/m² | - |
| 1787729350 | 29.44° C | 60% | 1021 hPa | 0 mm | - | 0 W/m² | - |
| 1787729049 | 29.44° C | 62% | 1021 hPa | 0 mm | - | 0 W/m² | - |
| 1787728750 | 28.33° C | 63% | 1021.4 hPa | 0 mm | - | 0 W/m² | - |
| 1787728450 | 28.33° C | 64% | 1021.4 hPa | 0 mm | - | 0 W/m² | - |
| 1787728150 | 27.78° C | 66% | 1021.4 hPa | 0 mm | - | 0 W/m² | - |
| 1787727855 | 26.67° C | 68% | 1021.4 hPa | 0 mm | - | 0 W/m² | - |
| 1787727550 | 27.22° C | 67% | 1021.4 hPa | 0 mm | - | 0 W/m² | - |
| 1787727249 | 27.78° C | 65% | 1021.4 hPa | 0 mm | - | 0 W/m² | - |
| 1787726949 | 27.22° C | 68% | 1021.4 hPa | 0 mm | - | 0 W/m² | - |
| 1787726650 | 26.67° C | 68% | 1021.4 hPa | 0 mm | - | 0 W/m² | - |
| 1787726350 | 26.67° C | 70% | 1021.4 hPa | 0 mm | - | 0 W/m² | - |
| 1787726049 | 26.11° C | 72% | 1021.8 hPa | 0 mm | - | 0 W/m² | - |
| 1787725749 | 25° C | 73% | 1021.8 hPa | 0 mm | - | 0 W/m² | - |
| 1787725449 | 25° C | 73% | 1021.8 hPa | 0 mm | - | 0 W/m² | - |
| 1787725149 | 24.44° C | 76% | 1021.8 hPa | 0 mm | - | 0 W/m² | - |
| 1787724849 | 23.89° C | 77% | 1021.8 hPa | 0 mm | - | 0 W/m² | - |
| 1787724550 | 23.33° C | 79% | 1022.3 hPa | 0 mm | - | 0 W/m² | - |
| 1787724255 | 23.33° C | 81% | 1022.3 hPa | 0 mm | - | 0 W/m² | - |
| 1787723949 | 22.78° C | 84% | 1022.3 hPa | 0 mm | - | 0 W/m² | - |
* Rain latest hour (hover to see other rain measurements)
** Current wind speed in m/s (hover to see current wind gust speed)